Time,TemperatureF,DewpointF,PressureIn,WindDirection,WindDirectionDegrees,WindSpeedMPH,WindSpeedGustMPH,Humidity,HourlyPrecipIn,Conditions,Clouds,dailyrainin,SoftwareType,DateUTC
2013-06-13 00:02:00,55.5,50.0,29.97,SSE,161,9.0,11.0,82,0.00,,,0.00,weatherlink.com 1.10,2013-06-13 07:02:00,
2013-06-13 00:17:00,55.2,50.0,29.97,SE,128,5.0,12.0,83,0.00,,,0.00,weatherlink.com 1.10,2013-06-13 07:17:00,
2013-06-13 00:32:00,55.0,50.0,29.97,SSE,149,8.0,11.0,84,0.00,,,0.00,weatherlink.com 1.10,2013-06-13 07:32:00,
2013-06-13 00:47:00,54.9,50.0,29.97,South,186,4.0,9.0,84,0.00,,,0.00,weatherlink.com 1.10,2013-06-13 07:47:00,
2013-06-13 01:03:00,54.6,50.0,29.97,South,172,3.0,10.0,85,0.00,,,0.00,weatherlink.com 1.10,2013-06-13 08:03:00,
2013-06-13 01:18:00,54.2,50.0,29.97,SE,139,6.0,10.0,84,0.00,,,0.00,weatherlink.com 1.10,2013-06-13 08:18:00,
2013-06-13 01:33:00,53.7,49.0,29.98,SSE,167,4.0,10.0,84,0.00,,,0.00,weatherlink.com 1.10,2013-06-13 08:33:00,
2013-06-13 01:48:00,53.3,49.0,29.98,SSE,165,3.0,8.0,84,0.00,,,0.00,weatherlink.com 1.10,2013-06-13 08:48:00,
2013-06-13 02:03:00,53.0,49.0,29.98,South,178,4.0,7.0,85,0.00,,,0.00,weatherlink.com 1.10,2013-06-13 09:03:00,
2013-06-13 02:18:00,53.0,49.0,29.99,SSE,148,3.0,8.0,86,0.00,,,0.00,weatherlink.com 1.10,2013-06-13 09:18:00,
2013-06-13 02:33:00,52.8,49.0,29.98,South,170,1.0,7.0,87,0.00,,,0.00,weatherlink.com 1.10,2013-06-13 09:33:00,
2013-06-13 02:48:00,52.6,49.0,29.99,SE,142,3.0,7.0,87,0.00,,,0.00,weatherlink.com 1.10,2013-06-13 09:48:00,
2013-06-13 03:03:00,52.3,49.0,29.99,SSE,157,2.0,6.0,88,0.00,,,0.00,weatherlink.com 1.10,2013-06-13 10:03:00,
2013-06-13 03:18:00,52.1,49.0,29.99,SE,125,2.0,6.0,88,0.00,,,0.00,weatherlink.com 1.10,2013-06-13 10:18:00,
2013-06-13 03:33:00,52.1,48.0,29.99,SSE,165,2.0,5.0,87,0.00,,,0.00,weatherlink.com 1.10,2013-06-13 10:33:00,
2013-06-13 03:48:00,52.2,49.0,30.00,SSE,153,1.0,4.0,87,0.00,,,0.00,weatherlink.com 1.10,2013-06-13 10:48:00,
2013-06-13 04:03:00,51.7,48.0,30.00,SE,124,1.0,4.0,87,0.00,,,0.00,weatherlink.com 1.10,2013-06-13 11:03:00,
2013-06-13 04:18:00,51.6,48.0,30.00,SSE,153,1.0,4.0,88,0.00,,,0.00,weatherlink.com 1.10,2013-06-13 11:18:00,
2013-06-13 04:33:00,51.5,48.0,30.00,SSE,153,1.0,5.0,88,0.00,,,0.00,weatherlink.com 1.10,2013-06-13 11:33:00,
2013-06-13 04:48:00,51.3,48.0,30.00,SSE,149,2.0,5.0,88,0.00,,,0.00,weatherlink.com 1.10,2013-06-13 11:48:00,
2013-06-13 05:03:00,51.4,48.0,30.01,SE,125,1.0,5.0,88,0.00,,,0.00,weatherlink.com 1.10,2013-06-13 12:03:00,
2013-06-13 05:18:00,51.3,48.0,30.01,SE,136,2.0,4.0,88,0.00,,,0.00,weatherlink.com 1.10,2013-06-13 12:18:00,
2013-06-13 05:33:00,51.2,48.0,30.01,SE,142,1.0,3.0,88,0.00,,,0.00,weatherlink.com 1.10,2013-06-13 12:33:00,
2013-06-13 05:48:00,51.0,48.0,30.02,SSE,167,2.0,4.0,88,0.00,,,0.00,weatherlink.com 1.10,2013-06-13 12:48:00,
2013-06-13 06:03:00,51.1,48.0,30.03,SSE,148,1.0,6.0,88,0.00,,,0.00,weatherlink.com 1.10,2013-06-13 13:03:00,
2013-06-13 06:18:00,51.1,48.0,30.03,SSE,149,1.0,5.0,88,0.00,,,0.00,weatherlink.com 1.10,2013-06-13 13:18:00,
2013-06-13 06:33:00,51.4,48.0,30.04,SSE,164,1.0,3.0,88,0.00,,,0.00,weatherlink.com 1.10,2013-06-13 13:33:00,
2013-06-13 06:48:00,52.2,49.0,30.04,SE,145,1.0,6.0,87,0.00,,,0.00,weatherlink.com 1.10,2013-06-13 13:48:00,
2013-06-13 07:03:00,52.5,49.0,30.05,SSE,149,1.0,5.0,86,0.00,,,0.00,weatherlink.com 1.10,2013-06-13 14:03:00,
2013-06-13 07:18:00,53.1,49.0,30.04,South,175,1.0,5.0,85,0.00,,,0.00,weatherlink.com 1.10,2013-06-13 14:18:00,
2013-06-13 07:33:00,54.5,50.0,30.05,South,186,1.0,5.0,84,0.00,,,0.00,weatherlink.com 1.10,2013-06-13 14:33:00,
2013-06-13 07:48:00,56.0,50.0,30.05,SSW,208,2.0,6.0,80,0.00,,,0.00,weatherlink.com 1.10,2013-06-13 14:48:00,
2013-06-13 08:03:00,57.4,51.0,30.05,SSW,204,3.0,5.0,78,0.00,,,0.00,weatherlink.com 1.10,2013-06-13 15:03:00,
2013-06-13 08:18:00,58.6,51.0,30.06,ESE,117,1.0,4.0,76,0.00,,,0.00,weatherlink.com 1.10,2013-06-13 15:18:00,
2013-06-13 08:34:00,58.5,51.0,30.06,South,173,2.0,7.0,75,0.00,,,0.00,weatherlink.com 1.10,2013-06-13 15:34:00,
2013-06-13 08:49:00,59.4,51.0,30.07,SSW,197,3.0,6.0,73,0.00,,,0.00,weatherlink.com 1.10,2013-06-13 15:49:00,
2013-06-13 09:04:00,60.1,51.0,30.07,SW,215,5.0,6.0,71,0.00,,,0.00,weatherlink.com 1.10,2013-06-13 16:04:00,
2013-06-13 09:19:00,61.3,51.0,30.07,WSW,238,2.0,7.0,69,0.00,,,0.00,weatherlink.com 1.10,2013-06-13 16:19:00,
2013-06-13 09:34:00,61.5,51.0,30.07,SW,236,5.0,5.0,69,0.00,,,0.00,weatherlink.com 1.10,2013-06-13 16:34:00,
2013-06-13 09:49:00,62.1,51.0,30.07,SSW,200,5.0,8.0,68,0.00,,,0.00,weatherlink.com 1.10,2013-06-13 16:49:00,
2013-06-13 10:04:00,62.5,51.0,30.07,West,266,7.0,7.0,67,0.00,,,0.00,weatherlink.com 1.10,2013-06-13 17:04:00,
2013-06-13 10:19:00,62.8,50.0,30.07,East,96,1.0,6.0,64,0.00,,,0.00,weatherlink.com 1.10,2013-06-13 17:19:00,
2013-06-13 10:34:00,64.3,49.0,30.07,SSE,157,2.0,6.0,59,0.00,,,0.00,weatherlink.com 1.10,2013-06-13 17:34:00,
2013-06-13 10:49:00,64.6,49.0,30.07,WSW,242,4.0,7.0,57,0.00,,,0.00,weatherlink.com 1.10,2013-06-13 17:49:00,
2013-06-13 11:04:00,65.4,48.0,30.08,West,264,1.0,7.0,54,0.00,,,0.00,weatherlink.com 1.10,2013-06-13 18:04:00,
2013-06-13 11:19:00,65.5,48.0,30.07,South,180,4.0,10.0,54,0.00,,,0.00,weatherlink.com 1.10,2013-06-13 18:19:00,
2013-06-13 11:34:00,65.7,49.0,30.08,West,259,5.0,9.0,56,0.00,,,0.00,weatherlink.com 1.10,2013-06-13 18:34:00,
2013-06-13 11:49:00,65.0,49.0,30.08,SW,217,4.0,9.0,56,0.00,,,0.00,weatherlink.com 1.10,2013-06-13 18:49:00,
2013-06-13 12:04:00,66.2,49.0,30.08,SW,226,3.0,10.0,54,0.00,,,0.00,weatherlink.com 1.10,2013-06-13 19:04:00,
2013-06-13 12:19:00,65.8,50.0,30.07,SW,236,6.0,11.0,57,0.00,,,0.00,weatherlink.com 1.10,2013-06-13 19:19:00,
2013-06-13 12:34:00,65.5,51.0,30.07,ESE,118,6.0,9.0,59,0.00,,,0.00,weatherlink.com 1.10,2013-06-13 19:34:00,
2013-06-13 12:49:00,66.4,51.0,30.07,SE,145,7.0,10.0,58,0.00,,,0.00,weatherlink.com 1.10,2013-06-13 19:49:00,
2013-06-13 13:04:00,66.6,51.0,30.07,SW,224,10.0,11.0,57,0.00,,,0.00,weatherlink.com 1.10,2013-06-13 20:04:00,
2013-06-13 13:19:00,66.9,51.0,30.07,SSW,204,8.0,10.0,56,0.00,,,0.00,weatherlink.com 1.10,2013-06-13 20:19:00,
2013-06-13 13:34:00,67.8,51.0,30.06,SW,221,6.0,11.0,55,0.00,,,0.00,weatherlink.com 1.10,2013-06-13 20:34:00,
2013-06-13 13:49:00,69.2,51.0,30.06,SSE,162,2.0,10.0,53,0.00,,,0.00,weatherlink.com 1.10,2013-06-13 20:49:00,
2013-06-13 14:04:00,69.4,51.0,30.06,SE,139,5.0,13.0,52,0.00,,,0.00,weatherlink.com 1.10,2013-06-13 21:04:00,
2013-06-13 14:19:00,69.4,50.0,30.05,South,184,8.0,12.0,51,0.00,,,0.00,weatherlink.com 1.10,2013-06-13 21:19:00,
2013-06-13 14:34:00,69.7,51.0,30.05,SSW,201,6.0,13.0,52,0.00,,,0.00,weatherlink.com 1.10,2013-06-13 21:34:00,
2013-06-13 14:49:00,70.2,51.0,30.05,SSW,211,4.0,13.0,50,0.00,,,0.00,weatherlink.com 1.10,2013-06-13 21:49:00,
2013-06-13 15:04:00,71.3,49.0,30.04,South,174,7.0,12.0,45,0.00,,,0.00,weatherlink.com 1.10,2013-06-13 22:04:00,
2013-06-13 15:19:00,72.3,52.0,30.04,SSE,163,6.0,12.0,49,0.00,,,0.00,weatherlink.com 1.10,2013-06-13 22:19:00,
2013-06-13 15:34:00,71.1,53.0,30.03,SSW,211,7.0,12.0,54,0.00,,,0.00,weatherlink.com 1.10,2013-06-13 22:34:00,
2013-06-13 15:49:00,71.2,54.0,30.03,SSW,200,7.0,12.0,54,0.00,,,0.00,weatherlink.com 1.10,2013-06-13 22:49:00,
2013-06-13 16:04:00,72.0,53.0,30.02,SSE,167,5.0,9.0,51,0.00,,,0.00,weatherlink.com 1.10,2013-06-13 23:04:00,
2013-06-13 16:19:00,72.3,53.0,30.02,South,173,7.0,11.0,51,0.00,,,0.00,weatherlink.com 1.10,2013-06-13 23:19:00,
2013-06-13 16:35:00,72.0,51.0,30.02,ESE,120,7.0,10.0,47,0.00,,,0.00,weatherlink.com 1.10,2013-06-13 23:35:00,
2013-06-13 16:50:00,73.1,53.0,30.01,SSE,160,5.0,9.0,49,0.00,,,0.00,weatherlink.com 1.10,2013-06-13 23:50:00,
2013-06-13 17:05:00,73.4,52.0,30.01,SSW,194,6.0,9.0,47,0.00,,,0.00,weatherlink.com 1.10,2013-06-14 00:05:00,
2013-06-13 17:20:00,72.2,52.0,30.00,SW,233,3.0,10.0,49,0.00,,,0.00,weatherlink.com 1.10,2013-06-14 00:20:00,
2013-06-13 17:35:00,72.9,51.0,30.00,South,169,3.0,10.0,46,0.00,,,0.00,weatherlink.com 1.10,2013-06-14 00:35:00,
2013-06-13 17:50:00,73.1,53.0,30.00,South,173,6.0,9.0,49,0.00,,,0.00,weatherlink.com 1.10,2013-06-14 00:50:00,
2013-06-13 18:05:00,73.3,52.0,29.99,SE,139,2.0,8.0,48,0.00,,,0.00,weatherlink.com 1.10,2013-06-14 01:05:00,
2013-06-13 18:20:00,73.9,52.0,29.99,WSW,245,4.0,7.0,46,0.00,,,0.00,weatherlink.com 1.10,2013-06-14 01:20:00,
2013-06-13 18:35:00,70.4,53.0,29.99,South,170,5.0,9.0,55,0.00,,,0.00,weatherlink.com 1.10,2013-06-14 01:35:00,
2013-06-13 18:50:00,69.6,54.0,29.98,SSW,200,6.0,7.0,57,0.00,,,0.00,weatherlink.com 1.10,2013-06-14 01:50:00,
2013-06-13 19:05:00,67.7,54.0,29.98,South,179,6.0,9.0,61,0.00,,,0.00,weatherlink.com 1.10,2013-06-14 02:05:00,
2013-06-13 19:20:00,67.0,54.0,29.98,SSE,149,3.0,7.0,64,0.00,,,0.00,weatherlink.com 1.10,2013-06-14 02:20:00,
2013-06-13 19:35:00,66.7,54.0,29.98,SE,141,4.0,7.0,64,0.00,,,0.00,weatherlink.com 1.10,2013-06-14 02:35:00,
2013-06-13 19:50:00,66.2,54.0,29.98,SSW,203,4.0,6.0,66,0.00,,,0.00,weatherlink.com 1.10,2013-06-14 02:50:00,
2013-06-13 20:05:00,65.1,55.0,29.98,SSW,206,2.0,6.0,69,0.00,,,0.00,weatherlink.com 1.10,2013-06-14 03:05:00,
2013-06-13 20:20:00,64.5,54.0,29.98,SSE,149,3.0,5.0,69,0.00,,,0.00,weatherlink.com 1.10,2013-06-14 03:20:00,
2013-06-13 20:35:00,63.5,54.0,29.98,South,181,3.0,5.0,71,0.00,,,0.00,weatherlink.com 1.10,2013-06-14 03:35:00,
2013-06-13 20:50:00,63.1,53.0,29.98,SSE,155,1.0,3.0,69,0.00,,,0.00,weatherlink.com 1.10,2013-06-14 03:50:00,
2013-06-13 21:05:00,63.0,52.0,29.98,SE,142,2.0,5.0,68,0.00,,,0.00,weatherlink.com 1.10,2013-06-14 04:05:00,
2013-06-13 21:20:00,63.3,51.0,29.98,SSE,152,2.0,4.0,65,0.00,,,0.00,weatherlink.com 1.10,2013-06-14 04:20:00,
2013-06-13 21:35:00,63.5,51.0,29.99,SE,146,5.0,5.0,64,0.00,,,0.00,weatherlink.com 1.10,2013-06-14 04:35:00,
2013-06-13 21:50:00,62.7,52.0,29.99,SW,236,0.0,2.0,67,0.00,,,0.00,weatherlink.com 1.10,2013-06-14 04:50:00,
2013-06-13 22:05:00,62.2,51.0,29.99,East,97,2.0,2.0,68,0.00,,,0.00,weatherlink.com 1.10,2013-06-14 05:05:00,
2013-06-13 22:20:00,62.4,51.0,29.98,WNW,294,0.0,2.0,67,0.00,,,0.00,weatherlink.com 1.10,2013-06-14 05:20:00,
2013-06-13 22:35:00,61.3,51.0,29.98,SSW,205,0.0,0.0,70,0.00,,,0.00,weatherlink.com 1.10,2013-06-14 05:35:00,
2013-06-13 22:50:00,60.5,53.0,29.98,SSW,209,2.0,5.0,75,0.00,,,0.00,weatherlink.com 1.10,2013-06-14 05:50:00,
2013-06-13 23:05:00,59.8,53.0,29.98,WSW,249,1.0,2.0,78,0.00,,,0.00,weatherlink.com 1.10,2013-06-14 06:05:00,
2013-06-13 23:35:00,58.4,53.0,29.98,SW,226,0.0,3.0,83,0.00,,,0.00,weatherlink.com 1.10,2013-06-14 06:35:00,
2013-06-13 23:50:00,58.0,53.0,29.97,SSE,160,0.0,2.0,83,0.00,,,0.00,weatherlink.com 1.10,2013-06-14 06:50:00,